Airport View

Enter AWOS ICAO identifier for current METAR.

ex. KFNL

KULS 041415Z AUTO 02007KT 10SM CLR 22/17 A3013 RMK AO2

4 Jul 2020 14:39

Frequency: 118.95

Phone: 620-424-3747

Other Area AWOS: KJHN - KHQG - K19S - K3K3

TAF KGCK 041120Z 0412/0512 09010KT P6SM SCT200